Falkville, Alabama
Current Conditions -  °F | °C
As of 11:15 AM on Saturday 20 Dec 2014 (Local Time) from KCMD Reporting Station
Scattered Clouds Scattered Clouds  
Wind Chill: 46°   Ceiling: Unl
Heat Index: 46°   Visibility: 10mi
Dew Point: 33°   Wind: 3mph
Humidity: 62%   Direction: 360°N
Pressure: 30.23"   Gusts: NA
Location:  34.37°N, 86.91°W
Report Text: KCMD 201715Z AUTO 36003KT 10SM SCT044 08/01 A3023 RMK AO2 T00750007
Loading
Personal Weather Stations






























Interactive Weather Map New forecast layout! Learn more

10-Day Weather Forecast

Advertisements
Track Severe Weather on mobile